Dades meteomassalio
Diari Summary for Abril 21, 2017 Units:  Metric    English   Both
« Previous Day
Next Day »
Diari Semanal Mensual Anual Personalitzat
  Maxima: Minima: Mijana:
Temperatura: 18.8 °C 1.4 °C 10.8 °C
Rosada: 4.1 °C -2.6 °C 0.9 °C
Humitat: 87 % 24 % 55 %
Velocitat del vent: 37.0 km/h 0.0 km/h 8 km/h
Racha vent: 37.0 km/h - -
Vent:- - SE
Pressio: 1029.0 hPa 1026.0 hPa -
Pluja: 0.0 mm    
Historical Graphs
 
 
Tabular Data for Abril 21, 2017
Time Temperature Dew Point Pressure Wind Wind Speed Wind Gust Humidity Rainfall Rate (Hourly) solar Conditions
00:00 7.0 °C 2.3 °C 1027.0 hPa Calm     72 % 0.0 mm 0.0 W/m2 CLR
00:05 6.8 °C 1.9 °C 1027.0 hPa Calm     71 % 0.0 mm 0.0 W/m2 CLR
00:10 6.7 °C 1.8 °C 1027.3 hPa Calm     71 % 0.0 mm 0.0 W/m2 CLR
00:15 6.5 °C 1.6 °C 1027.3 hPa Calm     71 % 0.0 mm 0.0 W/m2 CLR
00:20 6.4 °C 1.7 °C 1027.3 hPa Calm     72 % 0.0 mm 0.0 W/m2 CLR
00:25 6.3 °C 1.8 °C 1027.3 hPa Calm     73 % 0.0 mm 0.0 W/m2 CLR
00:30 6.2 °C 1.7 °C 1027.3 hPa Calm     73 % 0.0 mm 0.0 W/m2 CLR
00:35 6.1 °C 1.6 °C 1027.3 hPa Calm     73 % 0.0 mm 0.0 W/m2 CLR
00:40 5.9 °C 1.4 °C 1027.7 hPa Calm     73 % 0.0 mm 0.0 W/m2 CLR
00:45 5.7 °C 1.2 °C 1027.7 hPa Calm     73 % 0.0 mm 0.0 W/m2 CLR
00:50 5.5 °C 1.4 °C 1027.7 hPa Calm     75 % 0.0 mm 0.0 W/m2 CLR
00:55 5.4 °C 1.3 °C 1027.7 hPa Calm     75 % 0.0 mm 0.0 W/m2 CLR
01:00 5.3 °C 1.4 °C 1027.7 hPa Calm     76 % 0.0 mm 0.0 W/m2 CLR
01:05 5.3 °C 1.4 °C 1027.7 hPa Calm     76 % 0.0 mm 0.0 W/m2 CLR
01:10 5.3 °C 1.4 °C 1027.7 hPa Calm     76 % 0.0 mm 0.0 W/m2 CLR
01:15 5.2 °C 1.3 °C 1027.7 hPa Calm     76 % 0.0 mm 0.0 W/m2 CLR
01:20 5.1 °C 1.2 °C 1027.7 hPa Calm     76 % 0.0 mm 0.0 W/m2 CLR
01:25 4.9 °C 0.9 °C 1027.7 hPa Calm     75 % 0.0 mm 0.0 W/m2 CLR
01:30 4.8 °C 0.9 °C 1027.7 hPa Calm     76 % 0.0 mm 0.0 W/m2 CLR
01:31 4.8 °C 0.9 °C 1027.7 hPa Calm     76 % 0.0 mm 0.0 W/m2 CLR
01:36 4.7 °C 0.8 °C 1027.7 hPa Calm     76 % 0.0 mm 0.0 W/m2 CLR
01:41 4.5 °C 0.8 °C 1027.7 hPa Calm     77 % 0.0 mm 0.0 W/m2 CLR
01:46 4.3 °C 0.7 °C 1027.7 hPa Calm     77 % 0.0 mm 0.0 W/m2 CLR
01:51 4.3 °C 0.8 °C 1028.0 hPa Calm     78 % 0.0 mm 0.0 W/m2 CLR
01:56 4.2 °C 0.7 °C 1028.0 hPa Calm     78 % 0.0 mm 0.0 W/m2 CLR
02:01 4.2 °C 0.8 °C 1028.0 hPa Calm     79 % 0.0 mm 0.0 W/m2 CLR
02:06 4.0 °C 0.7 °C 1028.0 hPa Calm     79 % 0.0 mm 0.0 W/m2 CLR
02:07 4.0 °C 0.7 °C 1028.0 hPa Calm     79 % 0.0 mm 0.0 W/m2 CLR
02:11 3.9 °C 0.6 °C 1028.0 hPa Calm     79 % 0.0 mm 0.0 W/m2 CLR
02:16 3.8 °C 0.7 °C 1028.0 hPa Calm     80 % 0.0 mm 0.0 W/m2 CLR
02:21 3.7 °C 0.6 °C 1028.0 hPa Calm     80 % 0.0 mm 0.0 W/m2 CLR
02:26 3.7 °C 0.6 °C 1028.0 hPa Calm     80 % 0.0 mm 0.0 W/m2 CLR
02:31 3.6 °C 0.4 °C 1028.0 hPa Calm     80 % 0.0 mm 0.0 W/m2 CLR
02:36 3.6 °C 0.6 °C 1028.0 hPa Calm     81 % 0.0 mm 0.0 W/m2 CLR
02:41 3.4 °C 0.3 °C 1028.0 hPa Calm     80 % 0.0 mm 0.0 W/m2 CLR
02:46 3.4 °C 0.4 °C 1027.7 hPa Calm     81 % 0.0 mm 0.0 W/m2 CLR
02:51 3.3 °C 0.4 °C 1027.7 hPa Calm     81 % 0.0 mm 0.0 W/m2 CLR
02:56 3.2 °C 0.2 °C 1027.7 hPa Calm     81 % 0.0 mm 0.0 W/m2 CLR
03:01 3.0 °C 0.1 °C 1027.7 hPa Calm     81 % 0.0 mm 0.0 W/m2 CLR
03:06 2.9 °C 0.2 °C 1027.7 hPa Calm     82 % 0.0 mm 0.0 W/m2 CLR
03:11 2.8 °C -0.1 °C 1027.7 hPa Calm     81 % 0.0 mm 0.0 W/m2 CLR
03:16 2.7 °C -0.1 °C 1027.7 hPa Calm     82 % 0.0 mm 0.0 W/m2 CLR
03:21 2.7 °C -0.1 °C 1027.7 hPa Calm     82 % 0.0 mm 0.0 W/m2 CLR
03:26 2.7 °C -0.1 °C 1027.7 hPa Calm     82 % 0.0 mm 0.0 W/m2 CLR
03:31 2.6 °C 0.0 °C 1027.7 hPa Calm     83 % 0.0 mm 0.0 W/m2 CLR
03:36 2.6 °C 0.0 °C 1027.7 hPa Calm     83 % 0.0 mm 0.0 W/m2 CLR
03:41 2.6 °C 0.0 °C 1027.7 hPa Calm     83 % 0.0 mm 0.0 W/m2 CLR
03:46 2.6 °C 0.0 °C 1027.7 hPa Calm     83 % 0.0 mm 0.0 W/m2 CLR
03:51 2.7 °C 0.1 °C 1027.7 hPa Calm     83 % 0.0 mm 0.0 W/m2 CLR
03:56 2.8 °C 0.2 °C 1027.7 hPa Calm     83 % 0.0 mm 0.0 W/m2 CLR
04:01 2.8 °C 0.2 °C 1027.7 hPa Calm     83 % 0.0 mm 0.0 W/m2 CLR
04:07 2.9 °C 0.3 °C 1027.7 hPa Calm     83 % 0.0 mm 0.0 W/m2 CLR
04:12 2.8 °C 0.2 °C 1027.7 hPa Calm     83 % 0.0 mm 0.0 W/m2 CLR
04:17 2.8 °C 0.2 °C 1027.7 hPa Calm     83 % 0.0 mm 0.0 W/m2 CLR
04:22 2.8 °C 0.2 °C 1027.7 hPa Calm     83 % 0.0 mm 0.0 W/m2 CLR
04:27 2.9 °C 0.4 °C 1027.7 hPa Calm     84 % 0.0 mm 0.0 W/m2 CLR
04:32 3.0 °C 0.6 °C 1027.7 hPa Calm     84 % 0.0 mm 0.0 W/m2 CLR
04:37 3.1 °C 0.4 °C 1027.7 hPa Calm     83 % 0.0 mm 0.0 W/m2 CLR
04:42 3.1 °C 0.5 °C 1027.7 hPa Calm     83 % 0.0 mm 0.0 W/m2 CLR
04:47 3.2 °C 0.6 °C 1027.7 hPa Calm     83 % 0.0 mm 0.0 W/m2 CLR
04:52 3.2 °C 0.6 °C 1027.7 hPa Calm     83 % 0.0 mm 0.0 W/m2 CLR
04:57 3.2 °C 0.8 °C 1027.7 hPa Calm     84 % 0.0 mm 0.0 W/m2 CLR
05:02 3.3 °C 0.7 °C 1027.7 hPa Calm     83 % 0.0 mm 0.0 W/m2 CLR
05:07 3.5 °C 0.9 °C 1027.7 hPa Calm     83 % 0.0 mm 0.0 W/m2 CLR
05:12 3.6 °C 0.9 °C 1027.7 hPa Calm     83 % 0.0 mm 0.0 W/m2 CLR
05:17 3.7 °C 1.1 °C 1027.7 hPa Calm     83 % 0.0 mm 0.0 W/m2 CLR
05:22 3.8 °C 1.2 °C 1027.7 hPa Calm     83 % 0.0 mm 0.0 W/m2 CLR
05:27 3.7 °C 0.9 °C 1027.7 hPa Calm     82 % 0.0 mm 0.0 W/m2 CLR
05:32 3.7 °C 0.9 °C 1027.7 hPa Calm     82 % 0.0 mm 0.0 W/m2 CLR
05:37 3.5 °C 0.7 °C 1027.7 hPa Calm     82 % 0.0 mm 0.0 W/m2 CLR
05:42 3.4 °C 0.6 °C 1027.7 hPa Calm     82 % 0.0 mm 0.0 W/m2 CLR
05:47 3.2 °C 0.4 °C 1027.7 hPa Calm     82 % 0.0 mm 0.0 W/m2 CLR
05:52 3.1 °C 0.4 °C 1027.7 hPa Calm     83 % 0.0 mm 0.0 W/m2 CLR
05:57 2.9 °C 0.3 °C 1027.7 hPa Calm     83 % 0.0 mm 0.0 W/m2 CLR
06:02 2.8 °C 0.2 °C 1027.7 hPa Calm     83 % 0.0 mm 0.0 W/m2 CLR
06:07 2.7 °C 0.3 °C 1027.7 hPa Calm     84 % 0.0 mm 0.0 W/m2 CLR
06:12 2.6 °C 0.2 °C 1027.7 hPa Calm     84 % 0.0 mm 0.0 W/m2 CLR
06:14 2.6 °C 0.1 °C 1027.7 hPa Calm     84 % 0.0 mm 0.0 W/m2 CLR
06:19 2.5 °C 0.1 °C 1028.0 hPa Calm     84 % 0.0 mm 0.0 W/m2 CLR
06:24 2.3 °C -0.1 °C 1028.0 hPa Calm     84 % 0.0 mm 0.0 W/m2 CLR
06:29 2.3 °C 0.0 °C 1028.0 hPa Calm     85 % 0.0 mm 0.0 W/m2 CLR
06:34 2.2 °C -0.3 °C 1028.0 hPa Calm     84 % 0.0 mm 0.0 W/m2 CLR
06:39 1.9 °C -0.3 °C 1028.0 hPa Calm     85 % 0.0 mm 0.0 W/m2 CLR
06:44 1.9 °C -0.2 °C 1028.0 hPa Calm     86 % 0.0 mm 0.0 W/m2 CLR
06:49 1.9 °C -0.2 °C 1028.0 hPa Calm     86 % 0.0 mm 0.0 W/m2 CLR
06:54 1.9 °C -0.2 °C 1028.0 hPa Calm     86 % 0.0 mm 0.0 W/m2 CLR
06:59 1.8 °C -0.3 °C 1028.0 hPa Calm     86 % 0.0 mm 0.0 W/m2 CLR
07:04 1.7 °C -0.4 °C 1028.3 hPa Calm     86 % 0.0 mm 0.0 W/m2 OVC
07:09 1.7 °C -0.4 °C 1028.3 hPa Calm     86 % 0.0 mm 0.0 W/m2 OVC
07:14 1.5 °C -0.6 °C 1028.3 hPa Calm     86 % 0.0 mm 7.0 W/m2 OVC
07:19 1.4 °C -0.7 °C 1028.3 hPa Calm     86 % 0.0 mm 9.0 W/m2 BKN
07:24 1.4 °C -0.5 °C 1028.3 hPa Calm     87 % 0.0 mm 12.0 W/m2 BKN
07:29 1.4 °C -0.5 °C 1028.3 hPa Calm     87 % 0.0 mm 16.0 W/m2 BKN
07:34 1.5 °C -0.4 °C 1028.7 hPa Calm     87 % 0.0 mm 19.0 W/m2 BKN
07:39 1.5 °C -0.4 °C 1028.7 hPa Calm     87 % 0.0 mm 23.0 W/m2 BKN
07:44 1.6 °C -0.3 °C 1028.7 hPa Calm     87 % 0.0 mm 32.0 W/m2 BKN
07:49 1.8 °C -0.2 °C 1028.7 hPa Calm     87 % 0.0 mm 42.0 W/m2 BKN
07:54 1.9 °C -0.1 °C 1028.7 hPa Calm     87 % 0.0 mm 58.0 W/m2 SCT
07:59 2.1 °C 0.1 °C 1028.7 hPa Calm     87 % 0.0 mm 72.0 W/m2 FEW
08:04 2.3 °C 0.3 °C 1028.7 hPa Calm     87 % 0.0 mm 76.0 W/m2 FEW
08:09 2.6 °C 0.5 °C 1029.0 hPa Calm     86 % 0.0 mm 100.0 W/m2 CLR
08:14 2.9 °C 0.6 °C 1029.0 hPa Calm     85 % 0.0 mm 114.0 W/m2 CLR
08:19 3.2 °C 0.7 °C 1029.0 hPa Calm     84 % 0.0 mm 130.0 W/m2 CLR
08:24 3.4 °C 1.0 °C 1029.0 hPa Calm     84 % 0.0 mm 146.0 W/m2 CLR
08:29 3.6 °C 0.9 °C 1028.7 hPa Calm     83 % 0.0 mm 162.0 W/m2 CLR
08:34 3.7 °C 1.1 °C 1028.7 hPa Calm     83 % 0.0 mm 178.0 W/m2 CLR
08:39 4.1 °C 1.3 °C 1029.0 hPa Calm     82 % 0.0 mm 197.0 W/m2 CLR
08:44 4.5 °C 1.5 °C 1029.0 hPa Calm     81 % 0.0 mm 220.0 W/m2 CLR
08:49 5.1 °C 1.9 °C 1029.0 hPa Calm     80 % 0.0 mm 236.0 W/m2 CLR
08:54 5.5 °C 2.2 °C 1029.0 hPa Calm     79 % 0.0 mm 253.0 W/m2 CLR
08:59 6.1 °C 2.4 °C 1029.0 hPa Calm     77 % 0.0 mm 269.0 W/m2 CLR
09:04 6.5 °C 2.2 °C 1029.0 hPa Calm     74 % 0.0 mm 288.0 W/m2 CLR
09:09 6.7 °C 2.2 °C 1029.0 hPa Calm     73 % 0.0 mm 58.0 W/m2 CLR
09:14 7.1 °C 2.3 °C 1029.0 hPa Calm     72 % 0.0 mm 278.0 W/m2 CLR
09:19 7.3 °C 1.8 °C 1029.0 hPa Calm     68 % 0.0 mm 338.0 W/m2 CLR
09:24 7.6 °C 1.6 °C 1029.0 hPa Calm     66 % 0.0 mm 352.0 W/m2 CLR
09:29 8.0 °C 1.8 °C 1029.0 hPa Calm     65 % 0.0 mm 373.0 W/m2 CLR
09:34 8.5 °C 1.8 °C 1029.0 hPa Calm     63 % 0.0 mm 388.0 W/m2 CLR
09:39 9.0 °C 1.9 °C 1029.0 hPa Calm     61 % 0.0 mm 404.0 W/m2 CLR
09:44 9.5 °C 2.1 °C 1029.0 hPa Calm     60 % 0.0 mm 422.0 W/m2 CLR
09:49 10.0 °C 2.1 °C 1029.0 hPa Calm     58 % 0.0 mm 438.0 W/m2 CLR
09:54 10.5 °C 2.1 °C 1029.0 hPa Calm     56 % 0.0 mm 455.0 W/m2 CLR
09:59 10.8 °C 2.2 °C 1029.0 hPa Calm     55 % 0.0 mm 469.0 W/m2 CLR
10:04 11.2 °C 2.4 °C 1029.0 hPa Calm     55 % 0.0 mm 483.0 W/m2 CLR
10:09 11.6 °C 2.6 °C 1028.7 hPa Calm     54 % 0.0 mm 504.0 W/m2 CLR
10:14 12.1 °C 2.5 °C 1028.7 hPa Calm     52 % 0.0 mm 517.0 W/m2 CLR
10:19 12.2 °C 2.7 °C 1028.7 hPa Calm     52 % 0.0 mm 534.0 W/m2 CLR
10:24 12.3 °C 2.7 °C 1028.7 hPa NE 3.7 km/h   52 % 0.0 mm 548.0 W/m2 CLR
10:29 12.6 °C 2.7 °C 1028.7 hPa Calm     51 % 0.0 mm 568.0 W/m2 CLR
10:34 12.8 °C 2.4 °C 1029.0 hPa Calm     49 % 0.0 mm 585.0 W/m2 CLR
10:39 13.1 °C 2.6 °C 1029.0 hPa Calm     49 % 0.0 mm 592.0 W/m2 CLR
10:44 13.7 °C 3.1 °C 1028.7 hPa ENE 3.7 km/h 3.7 km/h 49 % 0.0 mm 613.0 W/m2 CLR
10:49 14.0 °C 2.6 °C 1028.7 hPa Calm     46 % 0.0 mm 628.0 W/m2 CLR
10:54 14.1 °C 2.7 °C 1029.0 hPa Calm     46 % 0.0 mm 643.0 W/m2 CLR
10:59 14.3 °C 2.2 °C 1029.0 hPa Calm     44 % 0.0 mm 657.0 W/m2 CLR
11:04 14.6 °C 1.8 °C 1028.7 hPa Calm     42 % 0.0 mm 668.0 W/m2 CLR
11:09 14.8 °C 1.3 °C 1028.7 hPa Calm     40 % 0.0 mm 677.0 W/m2 CLR
11:14 15.2 °C 0.6 °C 1028.7 hPa NE 6.4 km/h 6.4 km/h 37 % 0.0 mm 689.0 W/m2 CLR
11:19 15.3 °C 1.4 °C 1028.7 hPa Calm     39 % 0.0 mm 701.0 W/m2 CLR
11:24 15.4 °C 1.6 °C 1028.7 hPa Calm     39 % 0.0 mm 708.0 W/m2 CLR
11:29 15.8 °C 1.5 °C 1028.7 hPa ENE 7.4 km/h 7.4 km/h 38 % 0.0 mm 721.0 W/m2 CLR
11:34 15.8 °C 1.2 °C 1028.7 hPa Calm   0.5 km/h 37 % 0.0 mm 735.0 W/m2 CLR
11:40 15.9 °C 0.4 °C 1028.7 hPa ENE 9.3 km/h 9.3 km/h 35 % 0.0 mm 752.0 W/m2 CLR
11:45 15.8 °C -0.8 °C 1028.7 hPa ENE 9.3 km/h   32 % 0.0 mm 756.0 W/m2 CLR
11:50 16.1 °C 0.2 °C 1028.7 hPa ENE 5.6 km/h 5.6 km/h 34 % 0.0 mm 766.0 W/m2 CLR
11:55 16.3 °C -0.1 °C 1028.7 hPa Calm   0.5 km/h 33 % 0.0 mm 777.0 W/m2 CLR
12:00 16.4 °C 0.1 °C 1028.7 hPa ESE 11.3 km/h 11.3 km/h 33 % 0.0 mm 791.0 W/m2 CLR
12:05 16.5 °C -0.3 °C 1028.7 hPa ENE 7.4 km/h 7.4 km/h 32 % 0.0 mm 798.0 W/m2 CLR
12:10 16.9 °C 0.6 °C 1028.7 hPa Calm     33 % 0.0 mm 810.0 W/m2 CLR
12:15 17.1 °C -0.6 °C 1028.3 hPa South 9.3 km/h 9.3 km/h 30 % 0.0 mm 816.0 W/m2 CLR
12:20 17.0 °C -0.3 °C 1028.3 hPa South 1.9 km/h   31 % 0.0 mm 819.0 W/m2 CLR
12:25 17.0 °C -0.3 °C 1028.3 hPa ENE 8.0 km/h 8.0 km/h 31 % 0.0 mm 830.0 W/m2 CLR
12:30 17.2 °C -0.6 °C 1028.3 hPa West 5.6 km/h 5.6 km/h 30 % 0.0 mm 840.0 W/m2 CLR
12:35 17.4 °C -0.8 °C 1028.3 hPa SW 11.3 km/h 11.3 km/h 29 % 0.0 mm 846.0 W/m2 CLR
12:40 17.5 °C -1.2 °C 1028.0 hPa Calm     28 % 0.0 mm 853.0 W/m2 CLR
12:45 17.8 °C -0.4 °C 1028.0 hPa East 7.4 km/h 7.4 km/h 29 % 0.0 mm 858.0 W/m2 CLR
12:50 17.8 °C -0.9 °C 1028.0 hPa East 11.1 km/h 11.1 km/h 28 % 0.0 mm 865.0 W/m2 CLR
12:55 17.8 °C -0.9 °C 1028.0 hPa SE 14.5 km/h 14.5 km/h 28 % 0.0 mm 872.0 W/m2 CLR
13:00 17.6 °C -1.7 °C 1028.0 hPa ENE 5.6 km/h 5.6 km/h 27 % 0.0 mm 874.0 W/m2 CLR
13:05 17.7 °C -1.1 °C 1028.0 hPa ENE 7.4 km/h 7.4 km/h 28 % 0.0 mm 879.0 W/m2 CLR
13:10 17.9 °C -1.4 °C 1028.0 hPa East 16.7 km/h 16.7 km/h 27 % 0.0 mm 881.0 W/m2 CLR
13:15 18.1 °C -2.3 °C 1027.7 hPa ENE 13.0 km/h 13.0 km/h 25 % 0.0 mm 882.0 W/m2 CLR
13:20 18.4 °C -2.6 °C 1027.7 hPa ENE 5.6 km/h 5.6 km/h 24 % 0.0 mm 872.0 W/m2 CLR
13:25 18.6 °C -2.4 °C 1027.7 hPa SE 18.5 km/h 18.5 km/h 24 % 0.0 mm 893.0 W/m2 CLR
13:30 18.4 °C -1.9 °C 1027.7 hPa ESE 22.2 km/h 22.2 km/h 25 % 0.0 mm 900.0 W/m2 CLR
13:35 18.6 °C -2.4 °C 1027.7 hPa ESE 16.7 km/h 16.7 km/h 24 % 0.0 mm 891.0 W/m2 CLR
13:40 18.7 °C -1.7 °C 1027.7 hPa ESE 16.7 km/h 16.7 km/h 25 % 0.0 mm 896.0 W/m2 CLR
13:45 18.6 °C -1.8 °C 1027.7 hPa SE 22.2 km/h 22.2 km/h 25 % 0.0 mm 904.0 W/m2 CLR
13:50 18.6 °C -1.9 °C 1027.7 hPa ESE 14.5 km/h 14.5 km/h 25 % 0.0 mm 904.0 W/m2 CLR
13:55 18.6 °C -1.8 °C 1027.3 hPa East 9.3 km/h 9.3 km/h 25 % 0.0 mm 904.0 W/m2 CLR
14:00 18.7 °C -1.8 °C 1027.3 hPa SE 14.8 km/h 14.8 km/h 25 % 0.0 mm 905.0 W/m2 CLR
14:05 18.7 °C -1.2 °C 1027.3 hPa ESE 25.9 km/h 25.9 km/h 26 % 0.0 mm 905.0 W/m2 CLR
14:10 18.8 °C -1.7 °C 1027.3 hPa ENE 16.7 km/h 16.7 km/h 25 % 0.0 mm 904.0 W/m2 CLR
14:15 18.7 °C -1.2 °C 1027.3 hPa ESE 14.5 km/h 14.5 km/h 26 % 0.0 mm 904.0 W/m2 CLR
14:20 18.7 °C -0.7 °C 1027.3 hPa SE 20.4 km/h 20.4 km/h 27 % 0.0 mm 898.0 W/m2 CLR
14:25 18.6 °C -0.3 °C 1027.0 hPa ESE 14.8 km/h 14.8 km/h 28 % 0.0 mm 896.0 W/m2 CLR
14:30 18.8 °C 0.3 °C 1027.0 hPa SSE 19.3 km/h 19.3 km/h 29 % 0.0 mm 893.0 W/m2 CLR
14:35 18.5 °C 0.6 °C 1027.0 hPa ESE 22.2 km/h 22.2 km/h 30 % 0.0 mm 889.0 W/m2 CLR
14:40 18.6 °C 1.1 °C 1027.0 hPa SE 20.4 km/h 20.4 km/h 31 % 0.0 mm 886.0 W/m2 CLR
14:45 18.6 °C 1.6 °C 1027.0 hPa ESE 18.5 km/h 18.5 km/h 32 % 0.0 mm 881.0 W/m2 CLR
14:50 18.7 °C 2.1 °C 1027.0 hPa ESE 25.7 km/h 25.7 km/h 33 % 0.0 mm 879.0 W/m2 CLR
14:55 18.6 °C 1.9 °C 1027.0 hPa South 13.0 km/h 13.0 km/h 33 % 0.0 mm 875.0 W/m2 CLR
15:00 18.6 °C 2.0 °C 1027.0 hPa ESE 31.5 km/h 31.5 km/h 33 % 0.0 mm 863.0 W/m2 CLR
15:05 18.4 °C 2.3 °C 1027.0 hPa ESE 14.8 km/h 14.8 km/h 34 % 0.0 mm 858.0 W/m2 CLR
15:10 18.6 °C 3.2 °C 1027.0 hPa SSE 20.4 km/h 20.4 km/h 36 % 0.0 mm 854.0 W/m2 CLR
15:12 18.8 °C 3.4 °C 1027.0 hPa East 25.9 km/h 25.9 km/h 36 % 0.0 mm 849.0 W/m2 CLR
15:17 18.7 °C 3.3 °C 1027.0 hPa East 24.1 km/h 24.1 km/h 36 % 0.0 mm 842.0 W/m2 CLR
15:22 18.6 °C 3.2 °C 1027.0 hPa East 22.2 km/h 22.2 km/h 36 % 0.0 mm 838.0 W/m2 CLR
15:27 18.6 °C 3.9 °C 1026.6 hPa East 18.5 km/h 18.5 km/h 38 % 0.0 mm 837.0 W/m2 CLR
15:32 18.4 °C 3.5 °C 1026.6 hPa ESE 22.2 km/h 22.2 km/h 37 % 0.0 mm 824.0 W/m2 CLR
15:37 18.6 °C 3.9 °C 1026.6 hPa ESE 27.4 km/h 27.4 km/h 38 % 0.0 mm 817.0 W/m2 CLR
15:42 18.4 °C 3.1 °C 1026.6 hPa ESE 24.1 km/h 24.1 km/h 36 % 0.0 mm 810.0 W/m2 CLR
15:47 18.6 °C 3.6 °C 1026.6 hPa ESE 24.1 km/h 24.1 km/h 37 % 0.0 mm 802.0 W/m2 CLR
15:52 18.6 °C 3.9 °C 1026.3 hPa SE 16.7 km/h 16.7 km/h 38 % 0.0 mm 793.0 W/m2 CLR
15:57 18.4 °C 3.5 °C 1026.3 hPa East 22.2 km/h 22.2 km/h 37 % 0.0 mm 784.0 W/m2 CLR
16:02 18.3 °C 3.4 °C 1026.3 hPa SE 25.7 km/h 25.7 km/h 37 % 0.0 mm 773.0 W/m2 CLR
16:07 18.3 °C 3.3 °C 1026.3 hPa SE 24.1 km/h 24.1 km/h 37 % 0.0 mm 766.0 W/m2 CLR
16:12 18.5 °C 3.5 °C 1026.3 hPa SE 25.9 km/h 25.9 km/h 37 % 0.0 mm 761.0 W/m2 CLR
16:17 18.2 °C 3.3 °C 1026.3 hPa ESE 27.8 km/h 27.8 km/h 37 % 0.0 mm 744.0 W/m2 CLR
16:22 18.4 °C 3.4 °C 1026.3 hPa SE 25.9 km/h 25.9 km/h 37 % 0.0 mm 729.0 W/m2 CLR
16:27 18.6 °C 3.6 °C 1026.3 hPa SE 24.1 km/h 24.1 km/h 37 % 0.0 mm 724.0 W/m2 CLR
16:32 18.7 °C 2.9 °C 1026.3 hPa ESE 27.4 km/h 27.4 km/h 35 % 0.0 mm 714.0 W/m2 CLR
16:42 18.3 °C 2.9 °C 1026.3 hPa SSE 25.9 km/h 25.9 km/h 36 % 0.0 mm 689.0 W/m2 CLR
16:47 18.3 °C 3.4 °C 1026.3 hPa SE 25.9 km/h 25.9 km/h 37 % 0.0 mm 680.0 W/m2 CLR
16:52 18.3 °C 2.9 °C 1026.3 hPa ESE 30.6 km/h 30.6 km/h 36 % 0.0 mm 671.0 W/m2 CLR
16:57 17.9 °C 3.1 °C 1026.3 hPa SE 22.2 km/h 22.2 km/h 37 % 0.0 mm 657.0 W/m2 CLR
17:02 18.0 °C 3.1 °C 1026.3 hPa East 25.9 km/h 25.9 km/h 37 % 0.0 mm 642.0 W/m2 CLR
17:07 17.7 °C 3.2 °C 1026.3 hPa SE 33.3 km/h 33.3 km/h 38 % 0.0 mm 629.0 W/m2 CLR
17:12 17.8 °C 3.6 °C 1026.0 hPa East 22.2 km/h 22.2 km/h 39 % 0.0 mm 613.0 W/m2 CLR
17:17 18.1 °C 3.9 °C 1026.0 hPa ESE 20.9 km/h 20.9 km/h 39 % 0.0 mm 601.0 W/m2 CLR
17:22 17.9 °C 3.7 °C 1026.3 hPa SE 25.9 km/h 25.9 km/h 39 % 0.0 mm 587.0 W/m2 CLR
17:27 17.8 °C 4.1 °C 1026.0 hPa ESE 29.6 km/h 29.6 km/h 40 % 0.0 mm 570.0 W/m2 CLR
17:32 17.4 °C 3.7 °C 1026.3 hPa SE 31.5 km/h 31.5 km/h 40 % 0.0 mm 557.0 W/m2 CLR
17:37 17.4 °C 4.1 °C 1026.3 hPa SE 22.2 km/h 22.2 km/h 41 % 0.0 mm 543.0 W/m2 CLR
17:42 17.6 °C 3.8 °C 1026.3 hPa SE 37.0 km/h 37.0 km/h 40 % 0.0 mm 529.0 W/m2 CLR
17:47 17.2 °C 3.8 °C 1026.3 hPa ESE 25.9 km/h 25.9 km/h 41 % 0.0 mm 512.0 W/m2 CLR
17:52 17.3 °C 3.9 °C 1026.3 hPa ESE 29.0 km/h 29.0 km/h 41 % 0.0 mm 496.0 W/m2 CLR
17:53 17.3 °C 3.9 °C 1026.3 hPa ESE 29.6 km/h 29.6 km/h 41 % 0.0 mm 496.0 W/m2 CLR
17:58 17.1 °C 3.7 °C 1026.3 hPa SE 29.6 km/h 29.6 km/h 41 % 0.0 mm 478.0 W/m2 CLR
18:03 17.2 °C 3.4 °C 1026.3 hPa ESE 29.6 km/h 29.6 km/h 40 % 0.0 mm 462.0 W/m2 CLR
18:08 17.3 °C 3.6 °C 1026.3 hPa SE 33.3 km/h 33.3 km/h 40 % 0.0 mm 448.0 W/m2 CLR
18:13 17.4 °C 3.3 °C 1026.3 hPa ESE 22.5 km/h 22.5 km/h 39 % 0.0 mm 432.0 W/m2 CLR
18:18 17.1 °C 3.1 °C 1026.3 hPa SE 20.4 km/h 20.4 km/h 39 % 0.0 mm 418.0 W/m2 CLR
18:23 17.2 °C 3.1 °C 1026.3 hPa SSE 29.6 km/h 29.6 km/h 39 % 0.0 mm 401.0 W/m2 CLR
18:28 17.2 °C 2.8 °C 1026.3 hPa SE 29.6 km/h 29.6 km/h 38 % 0.0 mm 383.0 W/m2 CLR
18:33 17.1 °C 3.1 °C 1026.3 hPa SE 20.4 km/h 20.4 km/h 39 % 0.0 mm 369.0 W/m2 CLR
18:38 17.2 °C 2.7 °C 1026.3 hPa SE 27.8 km/h 27.8 km/h 38 % 0.0 mm 352.0 W/m2 CLR
18:43 17.1 °C 2.7 °C 1026.3 hPa SSE 24.1 km/h 24.1 km/h 38 % 0.0 mm 332.0 W/m2 CLR
18:48 17.1 °C 2.6 °C 1026.6 hPa SSE 22.5 km/h 22.5 km/h 38 % 0.0 mm 318.0 W/m2 CLR
18:53 17.0 °C 2.6 °C 1026.6 hPa SE 27.8 km/h 27.8 km/h 38 % 0.0 mm 301.0 W/m2 CLR
18:58 17.1 °C 2.7 °C 1026.6 hPa SE 18.5 km/h 18.5 km/h 38 % 0.0 mm 285.0 W/m2 CLR
19:03 16.9 °C 2.5 °C 1026.6 hPa SSE 20.4 km/h 20.4 km/h 38 % 0.0 mm 267.0 W/m2 CLR
19:08 16.9 °C 2.2 °C 1026.6 hPa SSE 22.2 km/h 22.2 km/h 37 % 0.0 mm 250.0 W/m2 CLR
19:13 16.9 °C 2.1 °C 1026.6 hPa SE 24.1 km/h 24.1 km/h 37 % 0.0 mm 234.0 W/m2 CLR
19:18 16.8 °C 2.1 °C 1026.6 hPa SSE 16.7 km/h 16.7 km/h 37 % 0.0 mm 214.0 W/m2 CLR
19:23 16.8 °C 2.1 °C 1026.6 hPa SSW 18.5 km/h 18.5 km/h 37 % 0.0 mm 197.0 W/m2 CLR
19:28 16.8 °C 1.3 °C 1026.6 hPa SE 20.4 km/h 20.4 km/h 35 % 0.0 mm 176.0 W/m2 CLR
19:33 16.7 °C 0.7 °C 1026.3 hPa SE 19.3 km/h 19.3 km/h 34 % 0.0 mm 156.0 W/m2 CLR
19:38 16.6 °C 0.3 °C 1026.6 hPa SSE 20.4 km/h 20.4 km/h 33 % 0.0 mm 139.0 W/m2 CLR
19:43 16.6 °C 0.3 °C 1026.6 hPa SSE 14.5 km/h 14.5 km/h 33 % 0.0 mm 121.0 W/m2 CLR
19:48 16.4 °C 0.1 °C 1026.6 hPa South 22.2 km/h 22.2 km/h 33 % 0.0 mm 102.0 W/m2 CLR
19:53 16.4 °C -0.4 °C 1026.6 hPa SSE 16.7 km/h 16.7 km/h 32 % 0.0 mm 86.0 W/m2 CLR
19:58 16.1 °C -0.6 °C 1026.6 hPa SSE 19.3 km/h 19.3 km/h 32 % 0.0 mm 72.0 W/m2 FEW
20:03 16.0 °C -0.3 °C 1026.6 hPa SSE 18.5 km/h 18.5 km/h 33 % 0.0 mm 46.0 W/m2 SCT
20:08 15.9 °C -0.4 °C 1026.6 hPa SSE 14.8 km/h 14.8 km/h 33 % 0.0 mm 44.0 W/m2 BKN
20:14 15.8 °C -0.4 °C 1026.6 hPa South 12.9 km/h 12.9 km/h 33 % 0.0 mm 33.0 W/m2 BKN
20:19 15.8 °C -0.5 °C 1026.6 hPa SSE 18.5 km/h 18.5 km/h 33 % 0.0 mm 23.0 W/m2 BKN
20:24 15.7 °C -0.6 °C 1026.6 hPa SSE 13.0 km/h 13.0 km/h 33 % 0.0 mm 16.0 W/m2 BKN
20:29 15.5 °C -0.7 °C 1026.6 hPa SSE 13.0 km/h 13.0 km/h 33 % 0.0 mm 12.0 W/m2 BKN
20:34 15.3 °C -1.3 °C 1026.6 hPa SSE 18.5 km/h 18.5 km/h 32 % 0.0 mm 11.0 W/m2 BKN
20:39 15.1 °C -1.1 °C 1026.6 hPa SSE 14.8 km/h 14.8 km/h 33 % 0.0 mm 9.0 W/m2 BKN
20:44 14.9 °C -1.2 °C 1026.6 hPa SE 14.8 km/h 14.8 km/h 33 % 0.0 mm 5.0 W/m2 BKN
20:49 14.8 °C -1.3 °C 1026.6 hPa SSE 9.3 km/h 9.3 km/h 33 % 0.0 mm 0.0 W/m2 OVC
20:54 14.6 °C -1.5 °C 1027.0 hPa SSE 9.3 km/h 9.3 km/h 33 % 0.0 mm 0.0 W/m2 OVC
20:59 14.4 °C -1.3 °C 1027.0 hPa SSE 9.3 km/h 9.3 km/h 34 % 0.0 mm 0.0 W/m2 CLR
21:04 14.2 °C -0.7 °C 1027.0 hPa SSE 13.0 km/h 13.0 km/h 36 % 0.0 mm 0.0 W/m2 CLR
21:09 14.0 °C -0.1 °C 1027.0 hPa SSE 13.0 km/h 13.0 km/h 38 % 0.0 mm 0.0 W/m2 CLR
21:14 13.7 °C 0.0 °C 1027.0 hPa SSE 13.0 km/h 13.0 km/h 39 % 0.0 mm 0.0 W/m2 CLR
21:19 13.5 °C 0.2 °C 1027.0 hPa SE 9.3 km/h 9.3 km/h 40 % 0.0 mm 0.0 W/m2 CLR
21:24 13.3 °C 0.3 °C 1027.3 hPa SE 13.0 km/h 13.0 km/h 41 % 0.0 mm 0.0 W/m2 CLR
21:29 13.1 °C 0.1 °C 1027.3 hPa SSE 11.1 km/h 11.1 km/h 41 % 0.0 mm 0.0 W/m2 CLR
21:34 12.9 °C 0.0 °C 1027.3 hPa SE 9.3 km/h 9.3 km/h 41 % 0.0 mm 0.0 W/m2 CLR
21:39 12.8 °C 0.2 °C 1027.3 hPa SSE 9.7 km/h 9.7 km/h 42 % 0.0 mm 0.0 W/m2 CLR
21:44 12.7 °C 0.1 °C 1027.3 hPa SE 7.4 km/h 7.4 km/h 42 % 0.0 mm 0.0 W/m2 CLR
21:49 12.6 °C -0.1 °C 1027.3 hPa SSE 11.1 km/h 11.1 km/h 42 % 0.0 mm 0.0 W/m2 CLR
21:54 12.6 °C -0.1 °C 1027.3 hPa SE 9.3 km/h 9.3 km/h 42 % 0.0 mm 0.0 W/m2 CLR
21:55 12.6 °C -0.1 °C 1027.3 hPa SE 9.3 km/h 9.3 km/h 42 % 0.0 mm 0.0 W/m2 CLR
22:00 12.4 °C -0.1 °C 1027.7 hPa SSE 5.6 km/h 5.6 km/h 42 % 0.0 mm 0.0 W/m2 CLR
22:05 12.3 °C -0.3 °C 1027.7 hPa SE 7.4 km/h 7.4 km/h 42 % 0.0 mm 0.0 W/m2 CLR
22:10 12.2 °C -0.1 °C 1027.7 hPa SSE 5.6 km/h 5.6 km/h 43 % 0.0 mm 0.0 W/m2 CLR
22:15 12.1 °C -0.2 °C 1028.0 hPa Calm     43 % 0.0 mm 0.0 W/m2 CLR
22:20 11.9 °C -0.3 °C 1028.0 hPa Calm     43 % 0.0 mm 0.0 W/m2 CLR
22:25 11.7 °C -0.2 °C 1028.0 hPa Calm     44 % 0.0 mm 0.0 W/m2 CLR
22:30 11.3 °C -0.2 °C 1028.0 hPa Calm     45 % 0.0 mm 0.0 W/m2 CLR
22:35 11.0 °C -0.2 °C 1028.0 hPa Calm     46 % 0.0 mm 0.0 W/m2 CLR
22:40 10.9 °C 0.1 °C 1028.0 hPa Calm     47 % 0.0 mm 0.0 W/m2 CLR
22:45 10.9 °C 0.0 °C 1028.0 hPa Calm     47 % 0.0 mm 0.0 W/m2 CLR
22:50 10.8 °C -0.1 °C 1028.0 hPa Calm     47 % 0.0 mm 0.0 W/m2 CLR
22:55 10.6 °C -0.3 °C 1028.0 hPa Calm     47 % 0.0 mm 0.0 W/m2 CLR
23:00 10.3 °C -0.2 °C 1028.0 hPa Calm     48 % 0.0 mm 0.0 W/m2 CLR
23:05 10.1 °C -0.4 °C 1028.0 hPa Calm     48 % 0.0 mm 0.0 W/m2 CLR
23:10 9.8 °C -0.4 °C 1028.0 hPa Calm     49 % 0.0 mm 0.0 W/m2 CLR
23:15 9.6 °C -0.3 °C 1028.0 hPa Calm     50 % 0.0 mm 0.0 W/m2 CLR
23:20 9.3 °C -0.3 °C 1028.0 hPa Calm     51 % 0.0 mm 0.0 W/m2 CLR
23:25 9.0 °C -0.6 °C 1028.0 hPa Calm     51 % 0.0 mm 0.0 W/m2 CLR
23:30 8.7 °C -0.7 °C 1028.0 hPa Calm     52 % 0.0 mm 0.0 W/m2 CLR
23:35 8.3 °C -0.8 °C 1028.0 hPa Calm     53 % 0.0 mm 0.0 W/m2 CLR
23:40 8.1 °C -0.4 °C 1028.3 hPa Calm     55 % 0.0 mm 0.0 W/m2 CLR
23:45 8.2 °C -0.3 °C 1028.3 hPa Calm     55 % 0.0 mm 0.0 W/m2 CLR
23:50 8.1 °C -0.4 °C 1028.3 hPa Calm     55 % 0.0 mm 0.0 W/m2 CLR
23:55 8.0 °C -0.3 °C 1028.3 hPa Calm     56 % 0.0 mm 0.0 W/m2 CLR
Lo Temps de Massalio
Compliments of Weather Underground - 1.25 mb